Time;durP1;ratioP1;P1;durP2;ratioP2;P2;SDS_P1;SDS_P2;PMS_P1;PMS_P2;Temp;Humidity;BMP_temperature;BMP_pressure;BME280_temperature;BME280_humidity;BME280_pressure;Samples;Min_cycle;Max_cycle;Signal;HPM_P1;HPM_P2
2022/09/01 00:02:27;;;;;;;5.53;2.87;;;;;;;18.56;79.34;98070.41;4426496;32;20089;-79
2022/09/01 00:04:57;;;;;;;8.05;3.08;;;;;;;18.02;82.85;98065.72;4425958;32;20362;-79
2022/09/01 00:07:31;;;;;;;7.72;3.30;;;;;;;18.25;82.69;98069.25;4426436;32;20090;-78
2022/09/01 00:09:59;;;;;;;7.00;3.22;;;;;;;18.98;80.75;98055.91;4425988;32;20153;-78
2022/09/01 00:12:26;;;;;;;8.35;3.25;;;;;;;18.78;81.68;98053.03;4425922;32;20109;-79
2022/09/01 00:14:54;;;;;;;10.20;3.80;;;;;;;18.37;84.07;98063.09;4426125;32;20162;-79
2022/09/01 00:17:21;;;;;;;7.32;3.37;;;;;;;18.30;85.99;98067.13;4426280;32;20124;-79
2022/09/01 00:19:48;;;;;;;8.35;3.37;;;;;;;17.99;88.06;98058.94;4437433;32;20157;-79
2022/09/01 00:22:15;;;;;;;8.35;3.67;;;;;;;18.90;82.90;98053.88;4426287;32;20124;-79
2022/09/01 00:24:42;;;;;;;8.77;3.62;;;;;;;18.00;87.52;98046.72;4426027;32;20145;-79
2022/09/01 00:27:09;;;;;;;8.98;3.78;;;;;;;18.79;84.73;98052.06;4425979;32;20093;-79
2022/09/01 00:29:36;;;;;;;8.07;3.80;;;;;;;18.39;87.67;98056.81;4426087;32;20107;-79
2022/09/01 00:32:09;;;;;;;8.25;3.90;;;;;;;18.42;88.43;98063.63;4425966;32;20093;-79
2022/09/01 00:34:36;;;;;;;7.68;3.67;;;;;;;18.84;85.91;98069.22;4450403;32;20165;-79
2022/09/01 00:37:03;;;;;;;9.63;4.03;;;;;;;18.31;86.24;98074.84;4426055;32;20494;-79
2022/09/01 00:39:30;;;;;;;10.80;3.72;;;;;;;18.67;86.04;98091.38;4425742;32;20236;-79
2022/09/01 00:41:58;;;;;;;9.10;3.97;;;;;;;18.21;87.55;98090.38;4426096;32;20711;-79
2022/09/01 00:44:26;;;;;;;9.05;4.10;;;;;;;18.31;87.48;98090.53;4424817;32;20592;-79
2022/09/01 00:46:57;;;;;;;8.43;3.80;;;;;;;17.74;89.82;98095.56;4425769;32;20487;-79
2022/09/01 00:49:29;;;;;;;8.48;3.37;;;;;;;18.21;87.30;98085.16;4424913;32;20077;-79
2022/09/01 00:52:04;;;;;;;9.32;4.20;;;;;;;17.26;92.42;98087.59;4424982;32;20102;-79
2022/09/01 00:54:38;;;;;;;9.55;4.12;;;;;;;17.46;93.73;98084.44;4424435;32;20109;-79
2022/09/01 00:57:07;;;;;;;9.50;4.15;;;;;;;17.23;95.46;98078.22;4426012;32;20107;-79
2022/09/01 00:59:37;;;;;;;11.10;3.53;;;;;;;17.27;95.82;98063.19;4424912;32;20157;-79
2022/09/01 01:02:05;;;;;;;8.68;3.62;;;;;;;16.73;98.84;98051.22;4425706;32;20488;-79
2022/09/01 01:04:32;;;;;;;11.90;4.35;;;;;;;16.62;100.00;98064.09;4425873;32;20217;-79
2022/09/01 01:07:01;;;;;;;11.63;5.12;;;;;;;16.52;100.00;98063.06;4425973;32;20161;-78
2022/09/01 01:09:32;;;;;;;11.10;4.65;;;;;;;16.44;100.00;98071.38;4423252;32;20123;-78
2022/09/01 01:12:02;;;;;;;12.30;5.20;;;;;;;16.92;100.00;98068.22;4424906;32;20109;-79
2022/09/01 01:14:31;;;;;;;11.15;4.93;;;;;;;17.23;99.75;98066.97;4425483;32;20156;-79
2022/09/01 01:16:59;;;;;;;12.30;5.50;;;;;;;17.90;96.22;98070.03;4425907;32;20113;-79
2022/09/01 01:23:01;;;;;;;11.35;4.68;;;;;;;17.11;100.00;98065.16;4425506;32;20468;-79
2022/09/01 01:25:49;;;;;;;9.63;4.00;;;;;;;16.93;100.00;98060.31;4425676;32;20129;-78
2022/09/01 01:28:21;;;;;;;9.82;3.80;;;;;;;16.67;100.00;98049.00;4425463;32;20161;-78
2022/09/01 01:31:00;;;;;;;11.55;4.90;;;;;;;16.66;100.00;98049.94;4425881;32;20070;-78
2022/09/01 01:33:39;;;;;;;11.82;4.50;;;;;;;16.75;100.00;98036.31;4424782;32;20164;-78
2022/09/01 01:36:13;;;;;;;10.00;4.37;;;;;;;16.44;100.00;98045.31;4424292;32;20168;-78
2022/09/01 01:38:45;;;;;;;8.52;4.00;;;;;;;16.38;100.00;98045.75;4425674;32;20153;-78
2022/09/01 01:41:13;;;;;;;8.80;4.10;;;;;;;16.51;100.00;98031.91;4425753;32;20073;-78
2022/09/01 01:43:41;;;;;;;10.57;4.62;;;;;;;16.12;100.00;98036.19;4425306;32;20503;-78
2022/09/01 01:46:09;;;;;;;11.23;5.47;;;;;;;16.68;100.00;98035.06;4425740;32;20115;-78
2022/09/01 01:48:39;;;;;;;10.40;4.95;;;;;;;16.15;100.00;98038.59;4424378;32;20427;-78
2022/09/01 01:51:07;;;;;;;12.40;5.50;;;;;;;16.32;100.00;98035.72;4424162;32;20094;-79
2022/09/01 01:53:35;;;;;;;10.95;5.07;;;;;;;16.46;100.00;98042.63;4437080;32;20117;-79
2022/09/01 01:56:05;;;;;;;11.57;5.25;;;;;;;17.36;100.00;98046.91;4436934;32;20106;-79
2022/09/01 01:58:33;;;;;;;13.32;6.10;;;;;;;18.05;99.29;98061.09;4436877;32;20098;-79
2022/09/01 02:01:02;;;;;;;11.98;5.82;;;;;;;18.19;98.64;98071.38;4425557;32;20160;-79
2022/09/01 02:03:37;;;;;;;12.73;5.30;;;;;;;17.90;98.51;98077.88;4425263;32;20109;-79
2022/09/01 02:06:09;;;;;;;10.43;4.78;;;;;;;17.73;98.24;98071.22;4425605;32;20153;-79
2022/09/01 02:08:37;;;;;;;9.93;4.72;;;;;;;18.69;92.47;98077.25;4425358;32;20618;-79
2022/09/01 02:11:05;;;;;;;10.35;4.72;;;;;;;18.19;94.53;98075.75;4425046;32;20165;-79
2022/09/01 02:13:32;;;;;;;10.55;4.18;;;;;;;17.53;96.86;98066.56;4436973;32;20165;-79
2022/09/01 02:16:06;;;;;;;10.65;4.55;;;;;;;17.09;98.92;98057.47;4425351;32;20119;-79
2022/09/01 02:18:36;;;;;;;9.52;4.10;;;;;;;16.44;100.00;98063.56;4425090;32;20162;-79
2022/09/01 02:21:10;;;;;;;8.82;3.60;;;;;;;16.70;100.00;98063.63;4425004;32;20093;-79
2022/09/01 02:23:46;;;;;;;7.93;3.40;;;;;;;16.28;100.00;98049.06;4425477;32;20090;-78
2022/09/01 02:26:14;;;;;;;9.88;4.18;;;;;;;15.66;100.00;98048.75;4425061;32;20149;-78
2022/09/01 02:28:48;;;;;;;11.52;3.97;;;;;;;15.82;100.00;98050.25;4425315;32;20085;-78
2022/09/01 02:31:22;;;;;;;14.07;4.87;;;;;;;16.37;100.00;98062.28;4425213;32;20100;-79
2022/09/01 02:33:49;;;;;;;13.73;4.35;;;;;;;16.30;100.00;98066.25;4425271;32;20112;-78
2022/09/01 02:36:18;;;;;;;10.57;4.18;;;;;;;16.08;100.00;98066.81;4425274;32;20101;-78
2022/09/01 02:38:47;;;;;;;9.15;3.25;;;;;;;15.86;100.00;98067.34;4425004;32;20412;-78
2022/09/01 02:41:21;;;;;;;6.97;3.30;;;;;;;15.84;100.00;98066.63;4425401;32;20330;-78
2022/09/01 02:43:49;;;;;;;7.80;3.40;;;;;;;15.41;100.00;98065.81;4425162;32;20724;-78
2022/09/01 02:46:19;;;;;;;9.38;3.87;;;;;;;15.75;100.00;98053.34;4424965;32;20089;-78
2022/09/01 02:48:50;;;;;;;12.25;4.25;;;;;;;15.34;100.00;98052.38;4425185;32;20456;-79
2022/09/01 02:51:19;;;;;;;10.85;3.90;;;;;;;15.19;100.00;98068.91;4425372;32;20139;-79
2022/09/01 02:53:48;;;;;;;9.25;3.40;;;;;;;15.45;100.00;98064.72;4436340;32;20452;-79
2022/09/01 02:56:17;;;;;;;8.65;3.17;;;;;;;15.14;100.00;98057.97;4425223;32;20436;-79
2022/09/01 02:58:45;;;;;;;9.50;3.50;;;;;;;15.21;100.00;98058.44;4425209;32;20429;-78
2022/09/01 03:01:18;;;;;;;8.25;3.60;;;;;;;15.08;100.00;98057.50;4424792;32;20090;-78
2022/09/01 03:03:47;;;;;;;10.68;3.62;;;;;;;15.46;100.00;98057.75;4425170;32;20101;-78
2022/09/01 03:06:17;;;;;;;9.80;3.92;;;;;;;15.61;100.00;98062.84;4425174;32;20137;-78
2022/09/01 03:08:44;;;;;;;8.85;3.60;;;;;;;16.12;100.00;98068.25;4424804;32;20173;-78
2022/09/01 03:11:11;;;;;;;6.05;2.22;;;;;;;15.86;100.00;98069.12;4424869;32;20141;-78
2022/09/01 03:13:40;;;;;;;6.82;2.90;;;;;;;15.51;100.00;98063.47;4424680;32;20204;-78
2022/09/01 03:16:07;;;;;;;8.07;3.42;;;;;;;15.15;100.00;98051.84;4425005;32;20664;-78
2022/09/01 03:18:35;;;;;;;7.60;3.30;;;;;;;15.36;100.00;98052.28;4425020;32;20151;-78
2022/09/01 03:21:04;;;;;;;10.73;3.70;;;;;;;15.92;100.00;98050.50;4424671;32;20086;-78
2022/09/01 03:23:32;;;;;;;8.32;3.28;;;;;;;15.97;100.00;98050.22;4424863;32;20113;-78
2022/09/01 03:26:00;;;;;;;11.95;3.80;;;;;;;15.36;100.00;98051.44;4424938;32;20368;-78
2022/09/01 03:28:27;;;;;;;8.00;3.10;;;;;;;15.62;100.00;98056.72;4424467;32;20085;-78
2022/09/01 03:30:56;;;;;;;6.95;2.87;;;;;;;15.69;100.00;98059.78;4424673;32;20083;-78
2022/09/01 03:33:24;;;;;;;9.05;3.47;;;;;;;15.24;100.00;98053.88;4423864;32;20138;-78
2022/09/01 03:35:52;;;;;;;8.60;3.75;;;;;;;15.11;100.00;98049.53;4424336;32;20145;-78
2022/09/01 03:38:21;;;;;;;7.07;3.03;;;;;;;15.40;100.00;98066.75;4423602;32;20093;-78
2022/09/01 03:40:57;;;;;;;9.30;3.85;;;;;;;15.23;100.00;98059.19;4424761;32;20090;-78
2022/09/01 03:43:26;;;;;;;9.38;3.95;;;;;;;15.46;100.00;98081.16;4423326;32;20227;-78
2022/09/01 03:46:02;;;;;;;9.18;3.95;;;;;;;15.60;100.00;98074.19;4423773;32;20184;-78
2022/09/01 03:48:30;;;;;;;8.88;3.65;;;;;;;15.66;100.00;98069.53;4424357;32;20093;-78
2022/09/01 03:51:02;;;;;;;8.18;3.10;;;;;;;16.34;100.00;98065.09;4424611;32;20094;-78
2022/09/01 03:53:31;;;;;;;7.65;3.42;;;;;;;16.18;100.00;98062.69;4424706;32;20114;-78
2022/09/01 03:55:58;;;;;;;10.10;3.47;;;;;;;15.82;100.00;98067.63;4424245;32;20093;-78
2022/09/01 03:58:26;;;;;;;7.87;3.40;;;;;;;15.98;100.00;98072.69;4424440;32;20089;-78
2022/09/01 04:00:55;;;;;;;10.27;3.92;;;;;;;15.81;100.00;98079.81;4436091;32;20120;-78
2022/09/01 04:03:25;;;;;;;9.27;3.22;;;;;;;16.32;100.00;98076.56;4424118;32;20101;-78
2022/09/01 04:05:55;;;;;;;8.75;4.10;;;;;;;15.72;100.00;98075.16;4424466;32;20094;-78
2022/09/01 04:08:29;;;;;;;7.87;3.28;;;;;;;16.28;100.00;98070.72;4424320;32;20157;-81
2022/09/01 04:11:10;;;;;;;7.53;3.17;;;;;;;16.33;100.00;98067.81;4423837;32;20069;-80
2022/09/01 04:13:39;;;;;;;9.10;3.60;;;;;;;15.63;100.00;98060.19;4424271;32;20187;-79
2022/09/01 04:18:03;;;;;;;9.80;3.55;;;;;;;16.24;100.00;98077.03;4424314;32;20516;-79
2022/09/01 04:18:59;;;;;;;8.57;3.90;;;;;;;15.70;100.00;98073.59;4423022;32;20093;-80
2022/09/01 04:21:26;;;;;;;9.20;3.85;;;;;;;17.05;98.00;98084.69;4424183;32;20090;-80
2022/09/01 04:23:56;;;;;;;8.45;3.65;;;;;;;18.09;91.69;98086.03;4423793;32;20281;-80
2022/09/01 04:26:26;;;;;;;7.20;3.10;;;;;;;18.19;90.37;98083.59;4424121;32;20180;-80
2022/09/01 04:28:54;;;;;;;7.22;3.42;;;;;;;19.07;85.67;98092.66;4424055;32;20090;-80
2022/09/01 04:31:21;;;;;;;9.15;3.37;;;;;;;18.92;86.16;98098.19;4423683;32;20492;-80
2022/09/01 04:33:54;;;;;;;8.48;3.45;;;;;;;19.23;85.45;98094.91;4423973;32;20114;-80
2022/09/01 04:36:26;;;;;;;8.02;3.50;;;;;;;19.29;83.99;98094.44;4424087;32;20090;-80
2022/09/01 04:38:56;;;;;;;8.63;3.60;;;;;;;19.25;84.69;98100.03;4423696;32;20104;-80
2022/09/01 04:41:25;;;;;;;7.90;3.25;;;;;;;19.11;85.21;98097.63;4423979;32;20144;-80
2022/09/01 04:43:55;;;;;;;7.85;3.58;;;;;;;18.07;88.16;98093.13;4425003;32;20121;-80
2022/09/01 04:46:27;;;;;;;6.82;3.05;;;;;;;19.46;82.93;98093.16;4425781;32;20123;-80
2022/09/01 04:48:56;;;;;;;7.55;3.10;;;;;;;20.23;78.76;98096.59;4424897;32;20093;-80
2022/09/01 04:51:26;;;;;;;6.55;3.03;;;;;;;19.78;80.94;98092.41;4426017;32;20078;-80
2022/09/01 04:53:56;;;;;;;5.50;2.22;;;;;;;20.32;77.74;98086.31;4425762;32;20144;-80
2022/09/01 04:56:25;;;;;;;8.63;3.45;;;;;;;19.77;78.59;98086.34;4426051;32;20187;-80
2022/09/01 04:58:55;;;;;;;7.70;3.05;;;;;;;20.18;78.08;98090.03;4425529;32;20081;-80
2022/09/01 05:01:25;;;;;;;7.47;2.97;;;;;;;19.48;81.30;98082.56;4426096;32;20149;-80
2022/09/01 05:04:00;;;;;;;7.37;3.20;;;;;;;18.15;88.25;98082.13;4425949;32;20133;-80
2022/09/01 05:06:32;;;;;;;7.53;3.40;;;;;;;17.89;90.45;98084.03;4425702;32;20173;-80
2022/09/01 05:08:59;;;;;;;7.75;3.58;;;;;;;17.82;91.30;98085.41;4425888;32;20093;-80
2022/09/01 05:11:26;;;;;;;12.63;4.22;;;;;;;18.69;87.58;98092.09;4425765;32;20156;-80
2022/09/01 05:13:56;;;;;;;9.60;3.67;;;;;;;19.59;82.37;98083.41;4425420;32;20113;-80
2022/09/01 05:16:26;;;;;;;10.90;3.87;;;;;;;19.67;82.32;98085.41;4425894;32;20165;-80
2022/09/01 05:18:55;;;;;;;7.05;3.22;;;;;;;19.75;81.97;98088.25;4425836;32;20432;-80
2022/09/01 05:21:27;;;;;;;8.00;3.55;;;;;;;19.67;81.38;98076.72;4424325;32;20082;-80
2022/09/01 05:23:56;;;;;;;9.95;3.47;;;;;;;20.07;79.59;98079.59;4424741;32;20467;-80
2022/09/01 05:26:26;;;;;;;8.70;3.25;;;;;;;18.79;85.49;98072.16;4425842;32;20594;-80
2022/09/01 05:28:57;;;;;;;7.32;3.00;;;;;;;18.58;87.22;98071.97;4425498;32;20098;-80
2022/09/01 05:31:27;;;;;;;8.13;3.65;;;;;;;17.76;90.92;98072.81;4425794;32;20556;-80
2022/09/01 05:33:56;;;;;;;8.30;3.67;;;;;;;18.55;88.75;98072.19;4425405;32;20109;-80
2022/09/01 05:36:24;;;;;;;8.20;3.50;;;;;;;18.01;90.41;98070.09;4425772;32;20097;-80
2022/09/01 05:38:51;;;;;;;10.60;4.15;;;;;;;17.77;91.86;98071.88;4425717;32;20372;-80
2022/09/01 05:41:19;;;;;;;7.97;3.75;;;;;;;17.60;94.14;98073.84;4425433;32;20090;-80
2022/09/01 05:43:50;;;;;;;8.98;3.40;;;;;;;17.83;92.66;98076.62;4425609;32;20437;-80
2022/09/01 05:46:26;;;;;;;9.02;3.67;;;;;;;17.16;97.01;98069.16;4425855;32;20157;-79
2022/09/01 05:48:54;;;;;;;10.52;4.10;;;;;;;17.32;97.09;98068.91;4425248;32;20108;-79
2022/09/01 05:51:25;;;;;;;9.95;4.53;;;;;;;17.60;96.44;98080.84;4425517;32;20584;-79
2022/09/01 05:54:10;;;;;;;10.98;4.97;;;;;;;18.29;91.96;98086.34;4425505;32;20090;-79
2022/09/01 05:56:41;;;;;;;9.80;5.03;;;;;;;19.01;88.13;98090.50;4424925;32;20116;-80
2022/09/01 05:59:11;;;;;;;11.32;4.43;;;;;;;19.78;83.89;98095.00;4425638;32;20123;-79
2022/09/01 06:01:54;;;;;;;9.55;4.05;;;;;;;19.54;85.76;98089.91;4425376;32;20100;-79
2022/09/01 06:04:24;;;;;;;9.38;3.95;;;;;;;20.10;83.16;98087.22;4425535;32;20109;-80
2022/09/01 06:06:52;;;;;;;8.30;3.80;;;;;;;19.97;83.18;98086.53;4425380;32;20115;-81
2022/09/01 06:09:40;;;;;;;8.37;3.53;;;;;;;20.36;80.57;98099.03;4424895;32;20105;-80
2022/09/01 06:12:16;;;;;;;7.53;3.47;;;;;;;21.77;73.28;98103.72;4425745;32;20078;-80
2022/09/01 06:14:45;;;;;;;6.90;3.05;;;;;;;21.48;73.76;98106.28;4425428;32;20119;-81
2022/09/01 06:17:15;;;;;;;7.22;3.10;;;;;;;20.89;74.49;98111.31;4425043;32;20129;-80
2022/09/01 06:19:42;;;;;;;6.28;2.90;;;;;;;21.21;74.45;98111.22;4424879;32;20104;-80
2022/09/01 06:22:10;;;;;;;6.78;2.90;;;;;;;21.53;73.43;98111.94;4423833;32;20120;-81
2022/09/01 06:24:38;;;;;;;5.10;2.50;;;;;;;22.42;69.41;98114.62;4424928;32;20120;-82
2022/09/01 06:27:08;;;;;;;6.30;2.58;;;;;;;22.92;66.56;98130.28;4425331;32;20124;-82
2022/09/01 06:29:38;;;;;;;3.80;2.03;;;;;;;22.58;68.13;98129.88;4425434;32;20141;-81
2022/09/01 06:32:09;;;;;;;5.32;2.40;;;;;;;22.70;66.54;98121.69;4425121;32;20086;-81
2022/09/01 06:34:41;;;;;;;4.97;2.20;;;;;;;22.60;66.93;98127.91;4425351;32;20117;-81
2022/09/01 06:37:09;;;;;;;4.60;2.30;;;;;;;22.63;67.20;98122.38;4425035;32;20124;-82
2022/09/01 06:39:37;;;;;;;5.00;2.20;;;;;;;21.80;69.65;98113.13;4424316;32;20112;-81
2022/09/01 06:42:04;;;;;;;4.80;2.15;;;;;;;22.50;68.04;98117.41;4424121;32;20108;-80
2022/09/01 06:44:32;;;;;;;4.22;1.87;;;;;;;23.02;65.38;98115.31;4424948;32;20101;-81
2022/09/01 06:46:59;;;;;;;4.03;2.15;;;;;;;22.60;66.82;98125.28;4425272;32;20119;-81
2022/09/01 06:49:33;;;;;;;4.28;2.10;;;;;;;23.71;63.82;98117.56;4424104;32;20151;-81
2022/09/01 06:52:04;;;;;;;5.18;2.20;;;;;;;23.37;64.95;98114.62;4425044;32;20101;-81
2022/09/01 06:54:32;;;;;;;4.07;2.00;;;;;;;24.30;60.19;98121.50;4425441;32;20145;-81
2022/09/01 06:57:03;;;;;;;5.62;2.35;;;;;;;24.19;59.58;98119.09;4425250;32;20175;-81
2022/09/01 06:59:52;;;;;;;4.05;2.12;;;;;;;24.04;60.33;98120.59;4423614;32;20143;-81
2022/09/01 07:02:21;;;;;;;3.83;1.85;;;;;;;24.18;60.30;98123.53;4425202;32;20116;-81
2022/09/01 07:04:53;;;;;;;6.12;1.95;;;;;;;24.17;59.99;98123.69;4424082;32;20101;-80
2022/09/01 07:07:21;;;;;;;3.90;1.87;;;;;;;23.95;60.41;98122.31;4423571;32;20131;-81
2022/09/01 07:10:08;;;;;;;4.15;2.15;;;;;;;23.81;61.73;98120.97;4424713;32;20135;-81
2022/09/01 07:13:00;;;;;;;2.87;1.70;;;;;;;23.76;61.76;98122.41;4424940;32;20518;-81
2022/09/01 07:15:39;;;;;;;4.12;2.08;;;;;;;23.51;63.38;98121.25;4425043;32;20101;-81
2022/09/01 07:18:26;;;;;;;4.62;2.15;;;;;;;23.96;61.55;98123.97;4424789;32;20151;-81
2022/09/01 07:20:57;;;;;;;4.65;2.22;;;;;;;22.65;66.04;98128.31;4424653;32;20437;-81
2022/09/01 07:23:44;;;;;;;4.32;2.30;;;;;;;22.39;68.26;98130.69;4425047;32;20081;-81
2022/09/01 07:26:40;;;;;;;;;;;;;;;22.62;68.59;98129.44;4424919;32;20102;-81
2022/09/01 07:29:15;;;;;;;4.40;1.95;;;;;;;22.89;67.49;98122.66;4425114;32;20038;-81
2022/09/01 07:31:42;;;;;;;5.65;2.30;;;;;;;23.50;64.77;98122.19;4424919;32;20169;-80
2022/09/01 07:34:29;;;;;;;6.03;2.25;;;;;;;23.57;64.89;98123.28;4424690;32;20077;-82
2022/09/01 07:37:04;;;;;;;3.75;2.00;;;;;;;23.41;64.97;98120.47;4424883;32;20162;-80
2022/09/01 07:39:51;;;;;;;4.60;2.15;;;;;;;23.05;66.04;98118.47;4424591;32;20085;-80
2022/09/01 07:42:20;;;;;;;4.50;2.30;;;;;;;24.01;61.37;98126.13;4435772;32;20086;-80
2022/09/01 07:45:09;;;;;;;5.20;2.25;;;;;;;24.18;61.31;98128.00;4424259;32;20086;-81
2022/09/01 07:47:53;;;;;;;5.22;2.30;;;;;;;23.97;61.04;98133.53;4424249;32;20114;-80
2022/09/01 07:50:22;;;;;;;6.68;2.37;;;;;;;23.99;60.76;98131.56;4424628;32;20102;-81
2022/09/01 07:53:07;;;;;;;4.57;2.17;;;;;;;24.40;60.39;98138.12;4424706;32;20100;-82
2022/09/01 07:55:39;;;;;;;3.75;1.95;;;;;;;23.03;66.50;98145.91;4424030;32;20151;-81
2022/09/01 07:58:07;;;;;;;3.72;1.92;;;;;;;22.52;68.62;98147.00;4424497;32;20499;-81
2022/09/01 08:00:35;;;;;;;4.35;2.05;;;;;;;23.08;65.89;98147.16;4424511;32;20098;-81
2022/09/01 08:03:02;;;;;;;4.45;2.17;;;;;;;22.67;67.11;98150.06;4424086;32;20085;-81
2022/09/01 08:05:30;;;;;;;5.40;2.08;;;;;;;23.61;64.03;98151.03;4424307;32;20073;-80
2022/09/01 08:07:56;;;;;;;3.95;1.77;;;;;;;23.08;65.67;98147.16;4424395;32;20393;-80
2022/09/01 08:10:23;;;;;;;4.53;2.00;;;;;;;23.37;64.13;98147.06;4423769;32;20104;-80
2022/09/01 08:12:51;;;;;;;6.30;2.05;;;;;;;22.46;68.20;98150.22;4424344;32;20129;-80
2022/09/01 08:15:25;;;;;;;5.18;2.35;;;;;;;22.72;66.81;98156.56;4423801;32;20567;-80
2022/09/01 08:18:12;;;;;;;3.17;1.90;;;;;;;23.72;63.50;98156.13;4424584;32;20526;-80
2022/09/01 08:20:46;;;;;;;5.22;2.30;;;;;;;22.57;66.54;98159.75;4426262;32;20085;-80
2022/09/01 08:23:17;;;;;;;4.35;1.92;;;;;;;23.87;62.01;98153.81;4425996;32;20100;-80
2022/09/01 08:25:46;;;;;;;4.18;1.92;;;;;;;24.57;58.80;98159.38;4426178;32;20074;-79
2022/09/01 08:28:14;;;;;;;3.85;1.90;;;;;;;24.88;57.71;98154.50;4426561;32;20149;-81
2022/09/01 08:30:42;;;;;;;3.45;2.00;;;;;;;23.20;64.11;98160.97;4425911;32;20157;-81
2022/09/01 08:33:18;;;;;;;;;;;;;;;22.59;67.67;98156.00;4427166;32;20085;-82
2022/09/01 08:35:46;;;;;;;4.80;2.20;;;;;;;21.68;71.61;98162.28;4427253;32;20012;-81
2022/09/01 08:38:14;;;;;;;5.25;2.40;;;;;;;22.22;69.84;98156.69;4425948;32;20230;-81
2022/09/01 08:40:42;;;;;;;4.95;2.30;;;;;;;22.29;69.70;98159.59;4426351;32;20157;-81
2022/09/01 08:43:41;;;;;;;5.68;2.20;;;;;;;22.50;68.65;98154.22;4426033;32;20104;-82
2022/09/01 08:46:26;;;;;;;5.47;2.53;;;;;;;20.54;75.43;98154.38;4413529;32;20082;-81
2022/09/01 08:48:59;;;;;;;7.10;2.65;;;;;;;20.74;77.39;98148.34;4425008;32;20167;-81
2022/09/01 08:51:52;;;;;;;8.10;3.45;;;;;;;19.01;84.61;98155.03;4424522;32;20106;-81
2022/09/01 08:54:31;;;;;;;11.27;3.28;;;;;;;17.39;93.55;98145.78;4424863;32;20105;-81
2022/09/01 08:57:04;;;;;;;9.50;4.00;;;;;;;17.43;94.20;98146.41;4412284;32;20149;-81
2022/09/01 08:59:31;;;;;;;10.32;4.37;;;;;;;16.93;98.38;98143.69;4412313;32;20116;-81
2022/09/01 09:02:07;;;;;;;10.98;4.10;;;;;;;17.17;98.82;98142.97;4412444;32;20121;-81
2022/09/01 09:04:48;;;;;;;10.05;4.75;;;;;;;17.16;99.26;98156.94;4425461;32;20093;-81
2022/09/01 09:07:21;;;;;;;11.60;4.10;;;;;;;17.35;97.21;98141.72;4425175;32;20104;-81
2022/09/01 09:10:09;;;;;;;11.10;4.80;;;;;;;16.94;99.51;98141.94;4426528;32;20102;-81
2022/09/01 09:12:41;;;;;;;10.55;5.15;;;;;;;16.92;100.00;98146.41;4425825;32;20161;-81
2022/09/01 09:15:44;;;;;;;9.20;4.12;;;;;;;16.95;100.00;98149.63;4426152;32;20385;-81
2022/09/01 09:18:40;;;;;;;10.18;4.93;;;;;;;17.22;99.78;98140.87;4437630;32;20142;-81
2022/09/01 09:21:28;;;;;;;11.38;5.25;;;;;;;17.27;100.00;98146.63;4424775;32;20117;-80
2022/09/01 09:24:19;;;;;;;13.73;5.55;;;;;;;17.54;100.00;98143.88;4424697;32;20116;-80
2022/09/01 09:26:57;;;;;;;11.35;4.62;;;;;;;17.90;97.44;98135.28;4425190;32;20089;-81
2022/09/01 09:29:26;;;;;;;9.75;4.47;;;;;;;18.20;94.67;98143.53;4425185;32;20148;-81
2022/09/01 09:32:06;;;;;;;13.32;5.03;;;;;;;18.02;95.63;98144.03;4425362;32;20692;-81
2022/09/01 09:34:49;;;;;;;11.35;5.18;;;;;;;18.43;94.89;98151.50;4425664;32;20116;-81
2022/09/01 09:37:26;;;;;;;9.57;4.30;;;;;;;19.50;90.57;98146.06;4425847;32;20184;-80
2022/09/01 09:40:14;;;;;;;8.48;3.90;;;;;;;19.21;89.45;98153.53;4425553;32;20104;-81
2022/09/01 09:42:55;;;;;;;11.50;4.15;;;;;;;19.00;89.29;98148.97;4425803;32;20121;-81
2022/09/01 09:45:28;;;;;;;8.07;3.22;;;;;;;18.71;91.15;98147.69;4425503;32;20139;-81
2022/09/01 09:47:56;;;;;;;9.13;3.90;;;;;;;18.25;91.54;98150.19;4425113;32;20644;-81
2022/09/01 09:50:40;;;;;;;6.82;3.05;;;;;;;17.91;95.11;98145.62;4425574;32;20560;-81
2022/09/01 09:53:10;;;;;;;8.95;3.42;;;;;;;18.72;86.80;98142.38;4425712;32;20094;-81
2022/09/01 09:55:51;;;;;;;9.13;3.72;;;;;;;18.81;88.59;98142.63;4425159;32;20153;-81
2022/09/01 09:58:27;;;;;;;7.53;2.87;;;;;;;19.90;81.84;98130.72;4424572;32;20105;-80
2022/09/01 10:01:08;;;;;;;6.22;2.78;;;;;;;20.27;79.07;98133.84;4412005;32;20153;-81
2022/09/01 10:03:43;;;;;;;6.57;2.60;;;;;;;20.69;74.98;98136.56;4424482;32;20167;-81
2022/09/01 10:06:12;;;;;;;4.80;2.20;;;;;;;20.71;72.12;98132.00;4425683;32;20733;-81
2022/09/01 10:08:44;;;;;;;5.65;2.20;;;;;;;20.30;75.21;98130.12;4425200;32;20108;-80
2022/09/01 10:11:26;;;;;;;6.18;2.53;;;;;;;20.85;72.13;98131.72;4425287;32;20073;-81
2022/09/01 10:14:01;;;;;;;7.20;2.67;;;;;;;20.11;74.95;98126.37;4425523;32;20125;-81
2022/09/01 10:16:30;;;;;;;7.05;2.60;;;;;;;19.30;80.16;98121.44;4424172;32;20164;-81
2022/09/01 10:18:59;;;;;;;5.82;2.78;;;;;;;20.39;77.61;98138.06;4425437;32;20104;-80
2022/09/01 10:21:33;;;;;;;4.57;1.98;;;;;;;20.02;75.07;98126.28;4425117;32;20086;-81
2022/09/01 10:24:13;;;;;;;5.43;2.28;;;;;;;19.42;77.65;98130.12;4424251;32;20109;-81
2022/09/01 10:26:51;;;;;;;6.00;2.00;;;;;;;19.84;73.58;98132.03;4424256;32;20097;-80
2022/09/01 10:29:28;;;;;;;4.55;2.00;;;;;;;19.60;75.34;98121.72;4425026;32;20089;-80
2022/09/01 10:32:02;;;;;;;3.72;1.67;;;;;;;19.80;71.54;98125.37;4424253;32;20147;-80
2022/09/01 10:34:49;;;;;;;4.07;1.50;;;;;;;19.84;70.54;98124.16;4425110;32;20086;-80
2022/09/01 10:37:16;;;;;;;2.95;1.50;;;;;;;20.04;69.45;98127.81;4424703;32;20105;-81
2022/09/01 10:40:11;;;;;;;6.18;1.80;;;;;;;20.03;68.81;98130.56;4425294;32;20542;-80
2022/09/01 10:42:41;;;;;;;7.57;1.98;;;;;;;19.96;70.71;98126.78;4424611;32;20082;-80
2022/09/01 10:45:31;;;;;;;4.68;1.90;;;;;;;20.35;68.87;98122.75;4425165;32;20125;-80
2022/09/01 10:48:24;;;;;;;5.15;1.75;;;;;;;20.09;70.48;98130.06;4425353;32;20105;-80
2022/09/01 10:51:11;;;;;;;3.05;1.45;;;;;;;19.83;69.91;98119.88;4424850;32;20085;-79
2022/09/01 10:53:45;;;;;;;5.10;1.90;;;;;;;20.09;67.64;98124.81;4425127;32;20100;-79
2022/09/01 10:56:18;;;;;;;5.78;2.12;;;;;;;19.80;66.47;98116.69;4411518;32;20376;-79
2022/09/01 10:59:25;;;;;;;3.17;1.55;;;;;;;19.96;67.22;98124.97;4424754;32;20432;-80
2022/09/01 11:02:16;;;;;;;4.43;1.60;;;;;;;21.28;61.24;98123.72;4425145;32;20093;-79
2022/09/01 11:04:53;;;;;;;2.72;1.35;;;;;;;21.85;57.64;98124.06;4423645;32;20081;-79
2022/09/01 11:07:22;;;;;;;3.90;1.30;;;;;;;20.92;58.40;98119.75;4425057;32;20172;-79
2022/09/01 11:10:09;;;;;;;3.47;1.60;;;;;;;20.37;58.09;98111.16;4424849;32;20093;-79
2022/09/01 11:13:22;;;;;;;3.07;1.50;;;;;;;21.57;58.56;98120.38;4425014;32;20089;-80
2022/09/01 11:15:49;;;;;;;3.28;1.50;;;;;;;22.29;55.61;98116.69;4419928;32;20179;-80
2022/09/01 11:18:25;;;;;;;3.70;1.52;;;;;;;22.01;57.66;98121.78;4423426;32;20162;-80
2022/09/01 11:20:54;;;;;;;3.28;1.60;;;;;;;22.48;55.37;98122.81;4425063;32;20098;-79
2022/09/01 11:23:28;;;;;;;3.65;1.50;;;;;;;23.06;52.13;98120.13;4423880;32;20127;-79
2022/09/01 11:25:57;;;;;;;4.72;1.40;;;;;;;22.36;53.77;98125.72;4424615;32;20099;-78
2022/09/01 11:28:44;;;;;;;3.10;1.58;;;;;;;23.17;53.67;98120.94;4424616;32;20090;-78
2022/09/01 11:31:20;;;;;;;4.80;1.75;;;;;;;23.10;52.82;98136.47;4424766;32;20156;-79
2022/09/01 11:34:04;;;;;;;6.03;1.80;;;;;;;21.91;57.63;98124.38;4424632;32;20183;-78
2022/09/01 11:36:35;;;;;;;5.20;1.77;;;;;;;21.97;58.25;98125.63;4423538;32;20134;-78
2022/09/01 11:39:28;;;;;;;3.08;1.48;;;;;;;22.03;59.55;98126.87;4424282;32;20155;-78
2022/09/01 11:42:04;;;;;;;3.70;1.70;;;;;;;22.07;56.35;98123.88;4424628;32;20102;-78
2022/09/01 11:44:34;;;;;;;4.18;1.62;;;;;;;21.16;61.00;98121.25;4424495;32;20111;-79
2022/09/01 11:47:07;;;;;;;3.30;1.60;;;;;;;21.32;60.33;98125.13;4423837;32;20248;-78
2022/09/01 11:49:47;;;;;;;5.93;2.12;;;;;;;21.65;59.47;98129.25;4424721;32;20090;-79
2022/09/01 11:52:17;;;;;;;4.12;2.10;;;;;;;22.15;59.41;98131.06;4424082;32;20116;-79
2022/09/01 11:54:47;;;;;;;4.60;2.17;;;;;;;22.39;57.44;98130.69;4423026;32;20092;-79
2022/09/01 11:57:16;;;;;;;5.43;2.00;;;;;;;23.00;53.94;98119.88;4424472;32;20153;-79
2022/09/01 11:59:44;;;;;;;3.87;1.92;;;;;;;24.20;50.51;98118.94;4424136;32;20093;-78
2022/09/01 12:02:23;;;;;;;3.30;1.73;;;;;;;23.75;50.61;98111.03;4424434;32;20503;-79